Galesburg, Iowa
Current Conditions -  °F | °C
As of 10:15 AM on Wednesday 28 Jan 2015 (Local Time) from KTNU Reporting Station
Broken Clouds Broken Clouds  
Wind Chill: 19°   Ceiling: 1100
Heat Index: 32°   Visibility: NA
Dew Point: 30°   Wind: 23mph
Humidity: 93%   Direction: 140°SE
Pressure: 29.96"   Gusts: 30mph
Location:  41.587°N, 93.0159°W
Report Text: KTNU 281615Z AUTO 14020G26KT BKN011 00/M01 A2996 RMK AO2
Loading
Personal Weather Stations






























Interactive Weather Map New forecast layout! Learn more

10-Day Weather Forecast

Advertisements
Track Severe Weather on mobile